createdAt,value
2022-10-07T00:00:54.225Z,100754.81
2022-10-07T00:03:22.206Z,100751.38
2022-10-07T00:06:19.917Z,100746.09
2022-10-07T00:08:52.010Z,100749.03
2022-10-07T00:11:24.507Z,100753.53
2022-10-07T00:13:57.340Z,100750.13
2022-10-07T00:16:26.244Z,100751.22
2022-10-07T00:18:56.502Z,100750.56
2022-10-07T00:21:25.192Z,100751.50
2022-10-07T00:23:52.395Z,100752.47
2022-10-07T00:26:21.735Z,100748.94
2022-10-07T00:28:49.200Z,100755.13
2022-10-07T00:31:21.252Z,100755.16
2022-10-07T00:33:48.854Z,100752.50
2022-10-07T00:36:23.729Z,100761.41
2022-10-07T00:39:02.598Z,100761.47
2022-10-07T00:41:44.885Z,100764.97
2022-10-07T00:44:36.586Z,100772.06
2022-10-07T00:47:21.819Z,100782.69
2022-10-07T00:50:01.112Z,100779.00
2022-10-07T00:52:31.314Z,100786.00
2022-10-07T00:55:00.935Z,100789.50
2022-10-07T00:57:30.226Z,100797.31
2022-10-07T00:59:57.408Z,100796.38
2022-10-07T01:02:25.440Z,100797.13
2022-10-07T01:04:54.580Z,100794.44
2022-10-07T01:07:21.829Z,100804.09
2022-10-07T01:09:51.650Z,100793.50
2022-10-07T01:12:37.108Z,100797.19
2022-10-07T01:15:08.279Z,100796.31
2022-10-07T01:17:38.753Z,100795.44
2022-10-07T01:20:05.420Z,100793.81
2022-10-07T01:23:12.125Z,100788.59
2022-10-07T01:25:52.841Z,100807.19
2022-10-07T01:28:32.143Z,100803.53
2022-10-07T01:31:01.720Z,100805.28
2022-10-07T01:33:32.943Z,100807.78
2022-10-07T01:36:12.824Z,100810.53
2022-10-07T01:38:45.468Z,100812.44
2022-10-07T01:41:15.146Z,100812.63
2022-10-07T01:43:44.737Z,100816.41
2022-10-07T01:46:18.469Z,100813.81
2022-10-07T01:48:49.028Z,100820.97
2022-10-07T01:51:19.236Z,100815.59
2022-10-07T01:53:47.299Z,100813.66
2022-10-07T01:56:33.133Z,100815.28
2022-10-07T01:59:25.091Z,100829.25
2022-10-07T02:02:01.098Z,100818.66
2022-10-07T02:04:46.870Z,100835.53
2022-10-07T02:07:29.485Z,100838.38
2022-10-07T02:10:08.209Z,100837.59
2022-10-07T02:12:41.645Z,100836.69
2022-10-07T02:15:17.152Z,100836.69
2022-10-07T02:17:55.218Z,100839.28
2022-10-07T02:20:27.009Z,100848.97
2022-10-07T02:22:57.505Z,100848.97
2022-10-07T02:25:28.253Z,100852.50
2022-10-07T02:27:57.884Z,100855.16
2022-10-07T02:30:25.834Z,100860.53
2022-10-07T02:32:56.529Z,100865.00
2022-10-07T02:35:33.084Z,100866.81
2022-10-07T02:38:05.753Z,100864.97
2022-10-07T02:40:39.922Z,100866.72
2022-10-07T02:43:36.491Z,100869.44
2022-10-07T02:46:12.002Z,100874.81
2022-10-07T02:48:58.907Z,100871.41
2022-10-07T02:51:36.561Z,100874.91
2022-10-07T02:54:04.884Z,100881.97
2022-10-07T02:56:36.529Z,100876.56
2022-10-07T02:59:07.375Z,100881.84
2022-10-07T03:01:39.941Z,100886.25
2022-10-07T03:04:07.293Z,100892.44
2022-10-07T03:06:35.941Z,100899.69
2022-10-07T03:09:03.894Z,100898.91
2022-10-07T03:11:31.125Z,100907.94
2022-10-07T03:13:58.483Z,100905.75
2022-10-07T03:16:25.573Z,100913.03
2022-10-07T03:18:52.368Z,100910.28
2022-10-07T03:21:33.549Z,100899.97
2022-10-07T03:24:05.244Z,100918.00
2022-10-07T03:26:37.889Z,100909.00
2022-10-07T03:29:05.501Z,100916.25
2022-10-07T03:31:32.357Z,100919.91
2022-10-07T03:34:00.625Z,100913.88
2022-10-07T03:36:28.239Z,100927.28
2022-10-07T03:38:55.702Z,100923.97
2022-10-07T03:41:24.388Z,100927.69
2022-10-07T03:43:57.522Z,100921.72
2022-10-07T03:46:25.449Z,100927.00
2022-10-07T03:48:52.641Z,100922.72
2022-10-07T03:51:21.788Z,100930.03
2022-10-07T03:53:49.354Z,100931.13
2022-10-07T03:56:16.713Z,100933.06
2022-10-07T03:58:43.939Z,100942.00
2022-10-07T04:01:15.208Z,100942.16
2022-10-07T04:03:52.555Z,100942.34
2022-10-07T04:06:19.832Z,100948.66
2022-10-07T04:08:52.061Z,100949.66
2022-10-07T04:11:19.105Z,100951.56
2022-10-07T04:13:46.664Z,100948.13
2022-10-07T04:16:14.017Z,100953.53
2022-10-07T04:18:42.070Z,100958.94
2022-10-07T04:21:09.996Z,100948.41
2022-10-07T04:23:37.481Z,100950.19
2022-10-07T04:26:11.700Z,100958.03
2022-10-07T04:28:42.882Z,100958.81
2022-10-07T04:31:17.232Z,100954.25
2022-10-07T04:33:51.921Z,100962.81
2022-10-07T04:36:25.398Z,100954.66
2022-10-07T04:39:00.028Z,100960.47
2022-10-07T04:41:31.241Z,100973.94
2022-10-07T04:43:58.286Z,100972.41
2022-10-07T04:46:28.762Z,100967.13
2022-10-07T04:49:10.630Z,100960.03
2022-10-07T04:51:37.776Z,100958.47
2022-10-07T04:54:05.058Z,100960.50
2022-10-07T04:56:38.367Z,100958.72
2022-10-07T04:59:07.848Z,100973.31
2022-10-07T05:01:36.491Z,100964.19
2022-10-07T05:04:03.698Z,100966.47
2022-10-07T05:06:32.926Z,100972.03
2022-10-07T05:08:59.850Z,100971.81
2022-10-07T05:11:27.004Z,100967.03
2022-10-07T05:14:01.918Z,100980.03
2022-10-07T05:16:30.404Z,100970.84
2022-10-07T05:18:58.084Z,100975.81
2022-10-07T05:21:25.003Z,100976.44
2022-10-07T05:23:52.384Z,100982.50
2022-10-07T05:26:24.904Z,100980.41
2022-10-07T05:28:56.616Z,100986.97
2022-10-07T05:31:29.995Z,100992.75
2022-10-07T05:34:00.722Z,100983.72
2022-10-07T05:36:28.316Z,100986.34
2022-10-07T05:38:58.156Z,100989.91
2022-10-07T05:41:30.962Z,100997.88
2022-10-07T05:44:01.365Z,100990.59
2022-10-07T05:46:28.322Z,100998.03
2022-10-07T05:48:58.072Z,101000.34
2022-10-07T05:51:30.716Z,101007.00
2022-10-07T05:53:59.174Z,101009.59
2022-10-07T05:56:32.708Z,101004.41
2022-10-07T05:58:59.558Z,101010.31
2022-10-07T06:01:29.165Z,101009.41
2022-10-07T06:03:58.800Z,101012.06
2022-10-07T06:06:30.256Z,101008.44
2022-10-07T06:09:19.952Z,101009.41
2022-10-07T06:12:06.309Z,101005.97
2022-10-07T06:14:35.002Z,101000.97
2022-10-07T06:17:01.903Z,101008.13
2022-10-07T06:19:29.083Z,101011.41
2022-10-07T06:21:59.500Z,101007.63
2022-10-07T06:24:27.172Z,101013.88
2022-10-07T06:26:55.972Z,101013.78
2022-10-07T06:29:24.010Z,101015.38
2022-10-07T06:31:51.122Z,101022.13
2022-10-07T06:34:19.332Z,101022.81
2022-10-07T06:36:46.498Z,101015.84
2022-10-07T06:39:16.429Z,101011.91
2022-10-07T06:41:43.766Z,101008.66
2022-10-07T06:44:36.643Z,101016.19
2022-10-07T06:47:07.768Z,101010.81
2022-10-07T06:49:38.816Z,101015.13
2022-10-07T06:52:05.643Z,101017.66
2022-10-07T06:54:34.152Z,101026.69
2022-10-07T06:57:00.895Z,101019.06
2022-10-07T06:59:28.226Z,101013.59
2022-10-07T07:02:01.999Z,101014.94
2022-10-07T07:04:32.233Z,101013.16
2022-10-07T07:06:59.087Z,101017.38
2022-10-07T07:09:26.149Z,101015.72
2022-10-07T07:11:56.425Z,101012.56
2022-10-07T07:14:35.096Z,101009.94
2022-10-07T07:17:09.947Z,101013.94
2022-10-07T07:19:37.151Z,101005.91
2022-10-07T07:22:04.140Z,101000.91
2022-10-07T07:24:31.076Z,101005.53
2022-10-07T07:26:58.047Z,101002.63
2022-10-07T07:29:27.590Z,100999.28
2022-10-07T07:31:59.949Z,101000.84
2022-10-07T07:34:30.292Z,101004.28
2022-10-07T07:36:57.506Z,100991.66
2022-10-07T07:39:29.863Z,100999.47
2022-10-07T07:42:06.155Z,100997.91
2022-10-07T07:44:34.878Z,100995.00
2022-10-07T07:47:03.977Z,100992.13
2022-10-07T07:49:32.305Z,100994.00
2022-10-07T07:51:59.933Z,101000.31
2022-10-07T07:54:31.250Z,100994.75
2022-10-07T07:56:58.176Z,101003.41
2022-10-07T07:59:28.178Z,100996.25
2022-10-07T08:01:57.871Z,100993.44
2022-10-07T08:04:25.042Z,100988.25
2022-10-07T08:06:52.341Z,100980.78
2022-10-07T08:09:19.808Z,100990.25
2022-10-07T08:11:48.281Z,100995.53
2022-10-07T08:14:17.585Z,100988.28
2022-10-07T08:16:47.410Z,100992.66
2022-10-07T08:19:15.371Z,100992.78
2022-10-07T08:21:42.558Z,100985.63
2022-10-07T08:24:14.643Z,100979.47
2022-10-07T08:26:41.471Z,100990.06
2022-10-07T08:29:13.527Z,100985.22
2022-10-07T08:31:42.642Z,100976.72
2022-10-07T08:34:10.993Z,100988.72
2022-10-07T08:36:38.331Z,100978.00
2022-10-07T08:39:06.032Z,100978.53
2022-10-07T08:41:39.453Z,100984.78
2022-10-07T08:44:18.048Z,100982.81
2022-10-07T08:46:57.662Z,100980.16
2022-10-07T08:49:36.078Z,100971.59
2022-10-07T08:52:25.596Z,100971.78
2022-10-07T08:54:53.234Z,100974.91
2022-10-07T08:57:32.428Z,100968.41
2022-10-07T09:00:03.828Z,100974.03
2022-10-07T09:02:46.868Z,100965.16
2022-10-07T09:05:26.946Z,100971.06
2022-10-07T09:08:01.216Z,100970.19
2022-10-07T09:10:49.614Z,100966.44
2022-10-07T09:13:20.658Z,100962.22
2022-10-07T09:16:19.880Z,100961.28
2022-10-07T09:18:53.960Z,100956.81
2022-10-07T09:21:25.578Z,100960.59
2022-10-07T09:23:57.218Z,100962.94
2022-10-07T09:26:27.002Z,100963.91
2022-10-07T09:28:53.864Z,100962.56
2022-10-07T09:31:23.824Z,100958.88
2022-10-07T09:33:53.029Z,100951.13
2022-10-07T09:36:20.249Z,100961.66
2022-10-07T09:38:50.402Z,100958.75
2022-10-07T09:41:31.029Z,100954.09
2022-10-07T09:44:16.335Z,100948.47
2022-10-07T09:46:53.336Z,100949.09
2022-10-07T09:49:29.136Z,100945.63
2022-10-07T09:52:06.831Z,100945.56
2022-10-07T09:54:37.089Z,100944.94
2022-10-07T09:57:06.083Z,100946.66
2022-10-07T09:59:35.539Z,100947.34
2022-10-07T10:02:21.017Z,100935.44
2022-10-07T10:04:53.840Z,100924.00
2022-10-07T10:07:29.676Z,100928.25
2022-10-07T10:10:21.661Z,100928.97
2022-10-07T10:12:50.009Z,100921.38
2022-10-07T10:15:26.027Z,100918.75
2022-10-07T10:17:57.146Z,100906.34
2022-10-07T10:20:23.787Z,100911.41
2022-10-07T10:22:51.672Z,100913.06
2022-10-07T10:25:51.378Z,100905.50
2022-10-07T10:28:30.053Z,100893.56
2022-10-07T10:31:06.854Z,100894.00
2022-10-07T10:33:44.662Z,100893.56
2022-10-07T10:36:27.102Z,100886.78
2022-10-07T10:39:04.242Z,100885.28
2022-10-07T10:41:43.230Z,100876.59
2022-10-07T10:44:20.389Z,100878.28
2022-10-07T10:47:07.464Z,100878.22
2022-10-07T10:50:19.223Z,100872.63
2022-10-07T10:53:33.397Z,100887.69
2022-10-07T10:56:21.620Z,100884.88
2022-10-07T10:59:05.047Z,100873.28
2022-10-07T11:01:37.678Z,100876.78
2022-10-07T11:04:25.861Z,100871.41
2022-10-07T11:07:04.867Z,100867.78
2022-10-07T11:09:46.653Z,100872.25
2022-10-07T11:12:34.232Z,100866.31
2022-10-07T11:15:13.816Z,100867.47
2022-10-07T11:17:40.893Z,100867.38
2022-10-07T11:20:29.396Z,100862.84
2022-10-07T11:23:02.687Z,100862.59
2022-10-07T11:25:36.818Z,100851.91
2022-10-07T11:28:26.541Z,100852.66
2022-10-07T11:31:05.325Z,100841.53
2022-10-07T11:33:43.247Z,100850.78
2022-10-07T11:36:16.311Z,100849.59
2022-10-07T11:38:44.326Z,100849.25
2022-10-07T11:41:16.569Z,100854.47
2022-10-07T11:43:49.668Z,100848.97
2022-10-07T11:46:22.254Z,100850.25
2022-10-07T11:48:59.760Z,100847.69
2022-10-07T11:51:35.151Z,100842.97
2022-10-07T11:54:06.474Z,100846.13
2022-10-07T11:56:49.464Z,100845.03
2022-10-07T11:59:38.244Z,100830.88
2022-10-07T12:02:30.630Z,100832.41
2022-10-07T12:04:59.653Z,100831.81
2022-10-07T12:07:35.197Z,100830.81
2022-10-07T12:10:01.972Z,100832.91
2022-10-07T12:12:47.725Z,100834.47
2022-10-07T12:15:33.254Z,100830.97
2022-10-07T12:18:04.491Z,100824.13
2022-10-07T12:20:45.136Z,100828.31
2022-10-07T12:23:20.840Z,100824.47
2022-10-07T12:26:03.102Z,100820.84
2022-10-07T12:28:37.021Z,100815.19
2022-10-07T12:31:16.301Z,100822.41
2022-10-07T12:33:45.993Z,100827.09
2022-10-07T12:36:18.740Z,100837.66
2022-10-07T12:39:08.361Z,100833.47
2022-10-07T12:41:45.317Z,100836.00
2022-10-07T12:44:36.310Z,100847.03
2022-10-07T12:47:08.457Z,100836.69
2022-10-07T12:49:37.618Z,100839.78
2022-10-07T12:52:12.241Z,100835.72
2022-10-07T12:54:47.974Z,100832.13
2022-10-07T12:57:23.255Z,100834.16
2022-10-07T13:00:15.054Z,100842.28
2022-10-07T13:02:58.742Z,100842.22
2022-10-07T13:06:02.972Z,100838.25
2022-10-07T13:08:42.180Z,100838.34
2022-10-07T13:11:28.561Z,100834.41
2022-10-07T13:14:19.162Z,100841.28
2022-10-07T13:17:18.281Z,100834.53
2022-10-07T13:19:51.233Z,100828.25
2022-10-07T13:22:19.194Z,100823.56
2022-10-07T13:24:49.954Z,100818.09
2022-10-07T13:27:35.017Z,100813.81
2022-10-07T13:30:04.410Z,100812.03
2022-10-07T13:32:34.325Z,100813.28
2022-10-07T13:35:29.985Z,100813.38
2022-10-07T13:37:57.116Z,100809.00
2022-10-07T13:40:35.825Z,100806.03
2022-10-07T13:43:08.103Z,100808.28
2022-10-07T13:45:45.113Z,100803.28
2022-10-07T13:48:22.220Z,100806.25
2022-10-07T13:50:50.907Z,100803.19
2022-10-07T13:53:31.969Z,100804.78
2022-10-07T13:56:05.723Z,100796.16
2022-10-07T13:58:33.636Z,100792.97
2022-10-07T14:01:03.989Z,100791.59
2022-10-07T14:03:30.828Z,100798.66
2022-10-07T14:05:57.821Z,100796.34
2022-10-07T14:08:29.458Z,100797.84
2022-10-07T14:10:59.633Z,100788.34
2022-10-07T14:13:29.314Z,100794.06
2022-10-07T14:15:57.918Z,100789.81
2022-10-07T14:18:27.636Z,100785.22
2022-10-07T14:20:57.843Z,100786.47
2022-10-07T14:23:31.504Z,100786.13
2022-10-07T14:26:06.723Z,100789.66
2022-10-07T14:28:38.000Z,100784.56
2022-10-07T14:31:23.444Z,100783.25
2022-10-07T14:34:16.844Z,100778.50
2022-10-07T14:37:10.241Z,100781.91
2022-10-07T14:39:38.568Z,100782.44
2022-10-07T14:42:10.451Z,100786.50
2022-10-07T14:44:37.650Z,100782.69
2022-10-07T14:47:13.320Z,100784.19
2022-10-07T14:49:42.339Z,100787.59
2022-10-07T14:52:21.604Z,100789.09
2022-10-07T14:54:49.117Z,100788.00
2022-10-07T14:57:15.865Z,100794.28
2022-10-07T14:59:42.645Z,100798.63
2022-10-07T15:02:12.743Z,100801.22
2022-10-07T15:04:40.414Z,100803.06
2022-10-07T15:07:07.606Z,100806.69
2022-10-07T15:09:34.522Z,100804.88
2022-10-07T15:12:01.382Z,100811.06
2022-10-07T15:14:28.372Z,100809.25
2022-10-07T15:16:58.663Z,100806.56
2022-10-07T15:19:26.489Z,100810.91
2022-10-07T15:21:53.852Z,100806.38
2022-10-07T15:24:20.691Z,100818.63
2022-10-07T15:26:47.455Z,100806.94
2022-10-07T15:29:15.182Z,100805.88
2022-10-07T15:31:43.223Z,100819.16
2022-10-07T15:34:10.701Z,100813.66
2022-10-07T15:36:37.889Z,100819.63
2022-10-07T15:39:05.117Z,100816.75
2022-10-07T15:41:37.436Z,100813.03
2022-10-07T15:44:11.670Z,100815.41
2022-10-07T15:46:38.778Z,100816.66
2022-10-07T15:49:05.844Z,100818.94
2022-10-07T15:51:32.766Z,100823.94
2022-10-07T15:53:59.841Z,100816.50
2022-10-07T15:56:26.757Z,100819.56
2022-10-07T15:58:53.492Z,100821.69
2022-10-07T16:01:20.917Z,100814.06
2022-10-07T16:03:49.140Z,100822.34
2022-10-07T16:06:20.303Z,100821.00
2022-10-07T16:08:48.060Z,100815.22
2022-10-07T16:11:15.223Z,100827.06
2022-10-07T16:13:44.294Z,100830.22
2022-10-07T16:16:32.683Z,100817.47
2022-10-07T16:19:00.769Z,100821.53
2022-10-07T16:21:33.256Z,100825.38
2022-10-07T16:24:06.406Z,100829.03
2022-10-07T16:26:35.746Z,100826.63
2022-10-07T16:29:23.616Z,100832.13
2022-10-07T16:31:55.926Z,100835.97
2022-10-07T16:34:25.711Z,100832.69
2022-10-07T16:36:52.975Z,100829.38
2022-10-07T16:39:21.487Z,100830.41
2022-10-07T16:41:49.611Z,100824.31
2022-10-07T16:44:16.497Z,100829.81
2022-10-07T16:46:43.828Z,100830.84
2022-10-07T16:49:17.979Z,100827.44
2022-10-07T16:51:46.044Z,100830.31
2022-10-07T16:54:16.021Z,100829.63
2022-10-07T16:56:48.565Z,100828.88
2022-10-07T16:59:24.113Z,100830.75
2022-10-07T17:01:56.093Z,100826.63
2022-10-07T17:04:24.544Z,100818.13
2022-10-07T17:06:51.683Z,100826.34
2022-10-07T17:09:18.706Z,100830.97
2022-10-07T17:11:45.671Z,100824.13
2022-10-07T17:14:21.129Z,100821.66
2022-10-07T17:16:53.433Z,100827.06
2022-10-07T17:19:23.279Z,100820.28
2022-10-07T17:21:51.227Z,100832.75
2022-10-07T17:24:20.057Z,100834.56
2022-10-07T17:26:47.435Z,100827.63
2022-10-07T17:29:18.136Z,100819.78
2022-10-07T17:31:48.262Z,100826.84
2022-10-07T17:34:16.249Z,100823.31
2022-10-07T17:36:43.945Z,100824.22
2022-10-07T17:39:11.332Z,100829.47
2022-10-07T17:41:38.890Z,100822.47
2022-10-07T17:44:11.675Z,100822.53
2022-10-07T17:46:39.563Z,100818.25
2022-10-07T17:49:08.799Z,100820.97
2022-10-07T17:51:37.287Z,100818.38
2022-10-07T17:54:05.900Z,100822.91
2022-10-07T17:56:34.301Z,100816.91
2022-10-07T17:59:01.998Z,100817.91
2022-10-07T18:01:32.787Z,100816.31
2022-10-07T18:04:07.932Z,100819.91
2022-10-07T18:06:36.597Z,100819.13
2022-10-07T18:09:13.514Z,100823.53
2022-10-07T18:11:58.873Z,100828.81
2022-10-07T18:14:44.426Z,100821.75
2022-10-07T18:17:11.345Z,100817.34
2022-10-07T18:19:39.814Z,100814.66
2022-10-07T18:22:07.164Z,100820.84
2022-10-07T18:24:34.265Z,100821.78
2022-10-07T18:27:01.565Z,100823.66
2022-10-07T18:29:34.159Z,100816.75
2022-10-07T18:32:01.259Z,100813.34
2022-10-07T18:34:28.249Z,100819.53
2022-10-07T18:36:56.988Z,100824.88
2022-10-07T18:39:27.278Z,100831.13
2022-10-07T18:41:54.421Z,100832.09
2022-10-07T18:44:21.416Z,100827.78
2022-10-07T18:46:48.651Z,100824.31
2022-10-07T18:49:15.621Z,100826.06
2022-10-07T18:51:42.884Z,100827.00
2022-10-07T18:54:10.642Z,100837.53
2022-10-07T18:56:41.141Z,100828.81
2022-10-07T18:59:10.047Z,100834.13
2022-10-07T19:01:37.907Z,100838.56
2022-10-07T19:04:07.242Z,100845.59
2022-10-07T19:06:36.487Z,100848.22
2022-10-07T19:09:06.593Z,100849.16
2022-10-07T19:11:33.881Z,100845.69
2022-10-07T19:14:01.726Z,100838.69
2022-10-07T19:16:36.836Z,100843.06
2022-10-07T19:19:09.163Z,100848.31
2022-10-07T19:21:35.990Z,100837.81
2022-10-07T19:24:04.388Z,100839.53
2022-10-07T19:26:37.791Z,100833.41
2022-10-07T19:29:06.465Z,100833.44
2022-10-07T19:31:36.254Z,100845.72
2022-10-07T19:34:06.291Z,100835.22
2022-10-07T19:36:36.221Z,100839.63
2022-10-07T19:39:04.322Z,100825.66
2022-10-07T19:41:33.405Z,100841.47
2022-10-07T19:44:00.147Z,100842.38
2022-10-07T19:46:30.214Z,100843.31
2022-10-07T19:48:58.887Z,100840.69
2022-10-07T19:51:28.472Z,100842.41
2022-10-07T19:53:57.378Z,100838.06
2022-10-07T19:56:28.226Z,100838.94
2022-10-07T19:59:00.602Z,100831.06
2022-10-07T20:01:29.435Z,100828.47
2022-10-07T20:03:57.851Z,100834.66
2022-10-07T20:06:25.257Z,100834.66
2022-10-07T20:08:53.038Z,100841.69
2022-10-07T20:11:20.796Z,100832.06
2022-10-07T20:13:47.605Z,100831.25
2022-10-07T20:16:19.841Z,100833.03
2022-10-07T20:18:48.720Z,100833.91
2022-10-07T20:21:19.061Z,100837.47
2022-10-07T20:23:48.161Z,100829.59
2022-10-07T20:26:20.390Z,100837.47
2022-10-07T20:28:49.289Z,100835.72
2022-10-07T20:31:19.140Z,100829.59
2022-10-07T20:33:48.721Z,100834.88
2022-10-07T20:36:18.904Z,100834.00
2022-10-07T20:39:06.232Z,100841.88
2022-10-07T20:41:51.638Z,100839.28
2022-10-07T20:44:18.434Z,100839.28
2022-10-07T20:46:45.145Z,100840.19
2022-10-07T20:49:25.214Z,100840.13
2022-10-07T20:51:54.306Z,100848.00
2022-10-07T20:54:22.907Z,100847.13
2022-10-07T20:56:54.000Z,100847.16
2022-10-07T20:59:21.111Z,100852.41
2022-10-07T21:01:48.283Z,100844.53
2022-10-07T21:04:15.840Z,100842.81
2022-10-07T21:06:43.601Z,100842.81
2022-10-07T21:09:11.077Z,100837.56
2022-10-07T21:11:38.270Z,100842.81
2022-10-07T21:14:05.103Z,100834.94
2022-10-07T21:16:35.177Z,100831.41
2022-10-07T21:19:02.015Z,100840.19
2022-10-07T21:21:29.010Z,100834.94
2022-10-07T21:23:55.897Z,100829.72
2022-10-07T21:26:22.896Z,100831.47
2022-10-07T21:28:49.656Z,100830.63
2022-10-07T21:31:19.051Z,100829.72
2022-10-07T21:33:48.790Z,100821.91
2022-10-07T21:36:17.953Z,100825.38
2022-10-07T21:38:46.440Z,100826.28
2022-10-07T21:41:20.278Z,100821.88
2022-10-07T21:43:54.610Z,100824.50
2022-10-07T21:46:23.233Z,100822.78
2022-10-07T21:48:50.393Z,100822.78
2022-10-07T21:51:17.562Z,100823.63
2022-10-07T21:53:45.744Z,100821.03
2022-10-07T21:56:13.568Z,100814.91
2022-10-07T21:58:40.292Z,100813.16
2022-10-07T22:01:11.758Z,100808.78
2022-10-07T22:03:38.742Z,100810.53
2022-10-07T22:06:08.096Z,100807.06
2022-10-07T22:08:35.449Z,100804.44
2022-10-07T22:11:04.746Z,100802.69
2022-10-07T22:13:40.339Z,100798.31
2022-10-07T22:16:12.377Z,100798.31
2022-10-07T22:18:39.233Z,100803.53
2022-10-07T22:21:15.378Z,100806.19
2022-10-07T22:23:43.564Z,100801.78
2022-10-07T22:26:15.088Z,100800.91
2022-10-07T22:28:41.888Z,100808.78
2022-10-07T22:31:11.054Z,100806.16
2022-10-07T22:33:41.142Z,100802.69
2022-10-07T22:36:10.561Z,100800.91
2022-10-07T22:38:37.507Z,100807.00
2022-10-07T22:41:05.415Z,100802.69
2022-10-07T22:43:36.468Z,100797.44
2022-10-07T22:46:03.896Z,100797.44
2022-10-07T22:48:32.322Z,100799.19
2022-10-07T22:51:08.374Z,100793.94
2022-10-07T22:53:36.892Z,100790.41
2022-10-07T22:56:11.317Z,100792.16
2022-10-07T22:58:39.246Z,100791.31
2022-10-07T23:01:07.931Z,100782.56
2022-10-07T23:03:38.346Z,100786.94
2022-10-07T23:06:08.245Z,100783.44
2022-10-07T23:08:35.552Z,100781.69
2022-10-07T23:11:03.852Z,100783.44
2022-10-07T23:13:37.462Z,100768.59
2022-10-07T23:16:12.643Z,100771.19
2022-10-07T23:18:42.645Z,100771.19
2022-10-07T23:21:14.971Z,100774.72
2022-10-07T23:23:44.962Z,100765.09
2022-10-07T23:26:16.270Z,100769.47
2022-10-07T23:28:43.094Z,100761.59
2022-10-07T23:31:14.095Z,100758.97
2022-10-07T23:33:41.138Z,100764.22
2022-10-07T23:36:10.516Z,100758.97
2022-10-07T23:38:39.030Z,100765.94
2022-10-07T23:41:07.096Z,100758.09
2022-10-07T23:43:34.442Z,100759.81
2022-10-07T23:46:02.537Z,100755.44
2022-10-07T23:48:35.137Z,100745.88
2022-10-07T23:51:03.892Z,100749.34
2022-10-07T23:53:31.412Z,100739.72
2022-10-07T23:55:58.657Z,100743.22
2022-10-07T23:58:27.885Z,100738.81
